sensor_id;sensor_type;location;lat;lon;timestamp;P1;durP1;ratioP1;P2;durP2;ratioP2
363;SDS011;173;48.718;9.274;2022-12-16T00:01:42;29.47;;;17.40;;
363;SDS011;173;48.718;9.274;2022-12-16T00:04:14;26.75;;;17.20;;
363;SDS011;173;48.718;9.274;2022-12-16T00:06:46;31.00;;;20.35;;
363;SDS011;173;48.718;9.274;2022-12-16T00:09:18;29.60;;;17.83;;
363;SDS011;173;48.718;9.274;2022-12-16T00:11:50;29.97;;;19.40;;
363;SDS011;173;48.718;9.274;2022-12-16T00:16:53;32.30;;;18.75;;
363;SDS011;173;48.718;9.274;2022-12-16T00:19:25;29.80;;;18.30;;
363;SDS011;173;48.718;9.274;2022-12-16T00:21:57;31.17;;;19.60;;
363;SDS011;173;48.718;9.274;2022-12-16T00:24:29;30.00;;;19.30;;
363;SDS011;173;48.718;9.274;2022-12-16T00:27:01;29.40;;;17.80;;
363;SDS011;173;48.718;9.274;2022-12-16T00:29:33;30.37;;;20.00;;
363;SDS011;173;48.718;9.274;2022-12-16T00:32:05;34.20;;;20.10;;
363;SDS011;173;48.718;9.274;2022-12-16T00:34:37;30.97;;;18.67;;
363;SDS011;173;48.718;9.274;2022-12-16T00:37:10;31.50;;;20.80;;
363;SDS011;173;48.718;9.274;2022-12-16T00:42:12;33.20;;;19.40;;
363;SDS011;173;48.718;9.274;2022-12-16T00:44:44;34.60;;;19.30;;
363;SDS011;173;48.718;9.274;2022-12-16T00:47:16;28.10;;;20.30;;
363;SDS011;173;48.718;9.274;2022-12-16T00:49:48;31.90;;;19.40;;
363;SDS011;173;48.718;9.274;2022-12-16T00:52:20;33.07;;;19.80;;
363;SDS011;173;48.718;9.274;2022-12-16T00:54:52;28.40;;;16.90;;
363;SDS011;173;48.718;9.274;2022-12-16T00:57:25;30.45;;;20.40;;
363;SDS011;173;48.718;9.274;2022-12-16T01:00:00;33.20;;;19.70;;
363;SDS011;173;48.718;9.274;2022-12-16T01:02:44;26.35;;;17.25;;
363;SDS011;173;48.718;9.274;2022-12-16T01:05:14;33.73;;;19.40;;
363;SDS011;173;48.718;9.274;2022-12-16T01:10:55;34.30;;;20.80;;
363;SDS011;173;48.718;9.274;2022-12-16T01:13:30;33.80;;;20.00;;
363;SDS011;173;48.718;9.274;2022-12-16T01:16:02;36.65;;;20.95;;
363;SDS011;173;48.718;9.274;2022-12-16T01:18:36;34.20;;;21.10;;
363;SDS011;173;48.718;9.274;2022-12-16T01:21:11;29.70;;;18.10;;
363;SDS011;173;48.718;9.274;2022-12-16T01:23:45;33.00;;;19.67;;
363;SDS011;173;48.718;9.274;2022-12-16T01:26:19;33.97;;;17.57;;
363;SDS011;173;48.718;9.274;2022-12-16T01:28:51;35.90;;;19.33;;
363;SDS011;173;48.718;9.274;2022-12-16T01:31:23;31.33;;;22.00;;
363;SDS011;173;48.718;9.274;2022-12-16T01:33:57;28.77;;;19.67;;
363;SDS011;173;48.718;9.274;2022-12-16T01:36:29;32.00;;;18.07;;
363;SDS011;173;48.718;9.274;2022-12-16T01:39:01;33.40;;;17.30;;
363;SDS011;173;48.718;9.274;2022-12-16T01:41:34;30.95;;;20.10;;
363;SDS011;173;48.718;9.274;2022-12-16T01:44:14;37.80;;;19.93;;
363;SDS011;173;48.718;9.274;2022-12-16T01:47:08;33.30;;;19.10;;
363;SDS011;173;48.718;9.274;2022-12-16T01:52:21;31.53;;;17.77;;
363;SDS011;173;48.718;9.274;2022-12-16T01:54:58;33.17;;;19.90;;
363;SDS011;173;48.718;9.274;2022-12-16T01:57:36;33.60;;;20.50;;
363;SDS011;173;48.718;9.274;2022-12-16T02:00:11;33.50;;;18.77;;
363;SDS011;173;48.718;9.274;2022-12-16T02:02:44;29.07;;;18.40;;
363;SDS011;173;48.718;9.274;2022-12-16T02:05:19;31.90;;;20.80;;
363;SDS011;173;48.718;9.274;2022-12-16T02:08:16;33.07;;;18.90;;
363;SDS011;173;48.718;9.274;2022-12-16T02:16:31;36.20;;;22.63;;
363;SDS011;173;48.718;9.274;2022-12-16T02:31:21;30.10;;;21.60;;
363;SDS011;173;48.718;9.274;2022-12-16T02:37:38;29.25;;;17.75;;
363;SDS011;173;48.718;9.274;2022-12-16T02:40:22;31.60;;;19.10;;
363;SDS011;173;48.718;9.274;2022-12-16T02:43:37;29.40;;;18.05;;
363;SDS011;173;48.718;9.274;2022-12-16T02:46:08;35.20;;;20.40;;
363;SDS011;173;48.718;9.274;2022-12-16T02:51:13;30.30;;;17.50;;
363;SDS011;173;48.718;9.274;2022-12-16T02:53:47;32.40;;;16.85;;
363;SDS011;173;48.718;9.274;2022-12-16T02:59:32;30.00;;;17.80;;
363;SDS011;173;48.718;9.274;2022-12-16T03:02:12;29.80;;;19.07;;
363;SDS011;173;48.718;9.274;2022-12-16T03:05:03;28.40;;;16.33;;
363;SDS011;173;48.718;9.274;2022-12-16T03:07:41;20.97;;;15.37;;
363;SDS011;173;48.718;9.274;2022-12-16T03:10:18;30.50;;;17.83;;
363;SDS011;173;48.718;9.274;2022-12-16T03:12:57;29.50;;;17.80;;
363;SDS011;173;48.718;9.274;2022-12-16T03:15:33;35.83;;;17.80;;
363;SDS011;173;48.718;9.274;2022-12-16T03:20:43;38.93;;;20.20;;
363;SDS011;173;48.718;9.274;2022-12-16T03:23:23;27.87;;;18.33;;
363;SDS011;173;48.718;9.274;2022-12-16T03:26:01;31.90;;;18.70;;
363;SDS011;173;48.718;9.274;2022-12-16T03:34:06;29.17;;;20.33;;
363;SDS011;173;48.718;9.274;2022-12-16T03:36:48;29.10;;;17.60;;
363;SDS011;173;48.718;9.274;2022-12-16T03:39:25;25.87;;;17.43;;
363;SDS011;173;48.718;9.274;2022-12-16T03:42:03;26.35;;;18.05;;
363;SDS011;173;48.718;9.274;2022-12-16T03:44:37;26.67;;;18.13;;
363;SDS011;173;48.718;9.274;2022-12-16T03:47:13;26.93;;;17.43;;
363;SDS011;173;48.718;9.274;2022-12-16T03:49:45;29.17;;;16.50;;
363;SDS011;173;48.718;9.274;2022-12-16T03:52:19;30.20;;;18.87;;
363;SDS011;173;48.718;9.274;2022-12-16T03:57:21;27.37;;;17.00;;
363;SDS011;173;48.718;9.274;2022-12-16T03:59:53;31.27;;;19.93;;
363;SDS011;173;48.718;9.274;2022-12-16T04:02:25;27.25;;;17.65;;
363;SDS011;173;48.718;9.274;2022-12-16T04:04:57;27.50;;;19.77;;
363;SDS011;173;48.718;9.274;2022-12-16T04:07:29;31.00;;;18.00;;
363;SDS011;173;48.718;9.274;2022-12-16T04:10:02;29.80;;;17.67;;
363;SDS011;173;48.718;9.274;2022-12-16T04:12:37;31.47;;;18.40;;
363;SDS011;173;48.718;9.274;2022-12-16T04:15:27;33.05;;;18.95;;
363;SDS011;173;48.718;9.274;2022-12-16T04:18:17;25.80;;;18.10;;
363;SDS011;173;48.718;9.274;2022-12-16T04:21:07;24.60;;;16.40;;
363;SDS011;173;48.718;9.274;2022-12-16T04:23:58;23.00;;;17.30;;
363;SDS011;173;48.718;9.274;2022-12-16T04:26:45;24.20;;;16.10;;
363;SDS011;173;48.718;9.274;2022-12-16T04:32:07;26.33;;;18.40;;
363;SDS011;173;48.718;9.274;2022-12-16T04:34:41;26.97;;;16.20;;
363;SDS011;173;48.718;9.274;2022-12-16T04:37:15;25.80;;;17.70;;
363;SDS011;173;48.718;9.274;2022-12-16T04:40:05;28.60;;;17.35;;
363;SDS011;173;48.718;9.274;2022-12-16T04:42:56;28.15;;;17.20;;
363;SDS011;173;48.718;9.274;2022-12-16T04:45:46;24.13;;;15.80;;
363;SDS011;173;48.718;9.274;2022-12-16T04:51:24;28.43;;;16.57;;
363;SDS011;173;48.718;9.274;2022-12-16T04:54:14;30.25;;;18.70;;
363;SDS011;173;48.718;9.274;2022-12-16T04:59:52;21.10;;;15.60;;
363;SDS011;173;48.718;9.274;2022-12-16T05:02:42;21.53;;;14.00;;
363;SDS011;173;48.718;9.274;2022-12-16T05:05:35;23.23;;;14.93;;
363;SDS011;173;48.718;9.274;2022-12-16T05:08:25;21.80;;;15.83;;
363;SDS011;173;48.718;9.274;2022-12-16T05:11:17;25.60;;;15.07;;
363;SDS011;173;48.718;9.274;2022-12-16T05:14:07;26.53;;;16.97;;
363;SDS011;173;48.718;9.274;2022-12-16T05:16:57;23.30;;;15.57;;
363;SDS011;173;48.718;9.274;2022-12-16T05:19:47;30.55;;;15.05;;
363;SDS011;173;48.718;9.274;2022-12-16T05:22:37;22.50;;;14.50;;
363;SDS011;173;48.718;9.274;2022-12-16T05:25:27;27.35;;;15.30;;
363;SDS011;173;48.718;9.274;2022-12-16T05:28:17;26.80;;;14.60;;
363;SDS011;173;48.718;9.274;2022-12-16T05:31:07;21.20;;;14.15;;
363;SDS011;173;48.718;9.274;2022-12-16T05:33:57;22.67;;;14.60;;
363;SDS011;173;48.718;9.274;2022-12-16T05:36:47;21.80;;;14.05;;
363;SDS011;173;48.718;9.274;2022-12-16T05:39:37;19.43;;;12.57;;
363;SDS011;173;48.718;9.274;2022-12-16T05:45:15;22.05;;;13.95;;
363;SDS011;173;48.718;9.274;2022-12-16T05:48:05;21.00;;;13.63;;
363;SDS011;173;48.718;9.274;2022-12-16T05:50:54;20.50;;;14.40;;
363;SDS011;173;48.718;9.274;2022-12-16T05:53:42;24.87;;;14.03;;
363;SDS011;173;48.718;9.274;2022-12-16T05:56:32;23.80;;;13.70;;
363;SDS011;173;48.718;9.274;2022-12-16T06:02:10;25.20;;;15.07;;
363;SDS011;173;48.718;9.274;2022-12-16T06:05:00;25.70;;;14.90;;
363;SDS011;173;48.718;9.274;2022-12-16T06:07:51;20.83;;;12.33;;
363;SDS011;173;48.718;9.274;2022-12-16T06:10:41;20.60;;;13.35;;
363;SDS011;173;48.718;9.274;2022-12-16T06:13:32;23.27;;;15.57;;
363;SDS011;173;48.718;9.274;2022-12-16T06:16:20;20.77;;;13.20;;
363;SDS011;173;48.718;9.274;2022-12-16T06:19:08;22.75;;;12.95;;
363;SDS011;173;48.718;9.274;2022-12-16T06:21:58;22.13;;;13.57;;
363;SDS011;173;48.718;9.274;2022-12-16T06:24:48;25.60;;;16.57;;
363;SDS011;173;48.718;9.274;2022-12-16T06:27:38;24.60;;;14.83;;
363;SDS011;173;48.718;9.274;2022-12-16T06:30:28;21.90;;;15.83;;
363;SDS011;173;48.718;9.274;2022-12-16T06:33:17;21.40;;;14.60;;
363;SDS011;173;48.718;9.274;2022-12-16T06:36:07;21.80;;;11.70;;
363;SDS011;173;48.718;9.274;2022-12-16T06:38:57;23.50;;;13.77;;
363;SDS011;173;48.718;9.274;2022-12-16T06:41:47;23.05;;;13.10;;
363;SDS011;173;48.718;9.274;2022-12-16T06:44:37;21.73;;;13.27;;
363;SDS011;173;48.718;9.274;2022-12-16T06:47:28;19.10;;;12.40;;
363;SDS011;173;48.718;9.274;2022-12-16T06:50:18;18.55;;;12.85;;
363;SDS011;173;48.718;9.274;2022-12-16T06:55:57;15.77;;;9.90;;
363;SDS011;173;48.718;9.274;2022-12-16T06:58:47;16.77;;;11.57;;
363;SDS011;173;48.718;9.274;2022-12-16T07:01:37;22.60;;;13.97;;
363;SDS011;173;48.718;9.274;2022-12-16T07:04:27;19.40;;;13.00;;
363;SDS011;173;48.718;9.274;2022-12-16T07:07:16;18.30;;;12.13;;
363;SDS011;173;48.718;9.274;2022-12-16T07:10:06;22.77;;;13.07;;
363;SDS011;173;48.718;9.274;2022-12-16T07:12:57;14.80;;;11.40;;
363;SDS011;173;48.718;9.274;2022-12-16T07:15:47;13.60;;;10.20;;
363;SDS011;173;48.718;9.274;2022-12-16T07:24:14;13.90;;;11.10;;
363;SDS011;173;48.718;9.274;2022-12-16T07:27:04;19.10;;;9.80;;
363;SDS011;173;48.718;9.274;2022-12-16T07:29:53;16.70;;;11.00;;
363;SDS011;173;48.718;9.274;2022-12-16T07:32:43;15.85;;;11.40;;
363;SDS011;173;48.718;9.274;2022-12-16T07:35:35;12.90;;;10.80;;
363;SDS011;173;48.718;9.274;2022-12-16T07:38:29;17.67;;;11.67;;
363;SDS011;173;48.718;9.274;2022-12-16T07:41:20;15.60;;;11.60;;
363;SDS011;173;48.718;9.274;2022-12-16T07:44:10;17.35;;;10.40;;
363;SDS011;173;48.718;9.274;2022-12-16T07:47:00;18.60;;;10.93;;
363;SDS011;173;48.718;9.274;2022-12-16T07:49:51;13.80;;;8.90;;
363;SDS011;173;48.718;9.274;2022-12-16T07:52:40;15.95;;;9.60;;
363;SDS011;173;48.718;9.274;2022-12-16T07:55:30;15.43;;;9.80;;
363;SDS011;173;48.718;9.274;2022-12-16T07:58:10;16.77;;;10.20;;
363;SDS011;173;48.718;9.274;2022-12-16T08:01:00;19.77;;;11.90;;
363;SDS011;173;48.718;9.274;2022-12-16T08:03:50;16.50;;;11.00;;
363;SDS011;173;48.718;9.274;2022-12-16T08:06:40;13.93;;;7.80;;
363;SDS011;173;48.718;9.274;2022-12-16T08:09:30;12.27;;;9.37;;
363;SDS011;173;48.718;9.274;2022-12-16T08:12:20;16.70;;;9.43;;
363;SDS011;173;48.718;9.274;2022-12-16T08:15:10;17.15;;;10.85;;
363;SDS011;173;48.718;9.274;2022-12-16T08:18:03;17.30;;;9.80;;
363;SDS011;173;48.718;9.274;2022-12-16T08:20:56;15.53;;;9.30;;
363;SDS011;173;48.718;9.274;2022-12-16T08:26:35;14.40;;;8.30;;
363;SDS011;173;48.718;9.274;2022-12-16T08:29:25;19.23;;;9.17;;
363;SDS011;173;48.718;9.274;2022-12-16T08:32:15;18.70;;;9.53;;
363;SDS011;173;48.718;9.274;2022-12-16T08:35:05;10.50;;;7.40;;
363;SDS011;173;48.718;9.274;2022-12-16T08:37:55;19.63;;;8.40;;
363;SDS011;173;48.718;9.274;2022-12-16T08:40:45;13.85;;;9.80;;
363;SDS011;173;48.718;9.274;2022-12-16T08:43:22;11.60;;;8.30;;
363;SDS011;173;48.718;9.274;2022-12-16T08:46:12;15.77;;;8.70;;
363;SDS011;173;48.718;9.274;2022-12-16T08:51:50;15.35;;;9.10;;
363;SDS011;173;48.718;9.274;2022-12-16T08:54:42;13.90;;;9.00;;
363;SDS011;173;48.718;9.274;2022-12-16T08:57:31;15.47;;;9.17;;
363;SDS011;173;48.718;9.274;2022-12-16T09:00:09;11.90;;;8.60;;
363;SDS011;173;48.718;9.274;2022-12-16T09:02:59;12.25;;;7.95;;
363;SDS011;173;48.718;9.274;2022-12-16T09:05:49;13.07;;;8.37;;
363;SDS011;173;48.718;9.274;2022-12-16T09:08:44;10.90;;;8.30;;
363;SDS011;173;48.718;9.274;2022-12-16T09:11:33;14.27;;;8.97;;
363;SDS011;173;48.718;9.274;2022-12-16T09:14:23;10.65;;;7.95;;
363;SDS011;173;48.718;9.274;2022-12-16T09:17:13;11.80;;;7.80;;
363;SDS011;173;48.718;9.274;2022-12-16T09:20:02;14.43;;;8.97;;
363;SDS011;173;48.718;9.274;2022-12-16T09:22:53;13.80;;;8.60;;
363;SDS011;173;48.718;9.274;2022-12-16T09:25:44;10.80;;;8.00;;
363;SDS011;173;48.718;9.274;2022-12-16T09:28:34;13.17;;;8.70;;
363;SDS011;173;48.718;9.274;2022-12-16T09:31:24;14.30;;;8.35;;
363;SDS011;173;48.718;9.274;2022-12-16T09:34:14;12.40;;;7.90;;
363;SDS011;173;48.718;9.274;2022-12-16T09:37:04;15.40;;;8.43;;
363;SDS011;173;48.718;9.274;2022-12-16T09:39:54;16.97;;;10.47;;
363;SDS011;173;48.718;9.274;2022-12-16T09:42:50;13.53;;;8.33;;
363;SDS011;173;48.718;9.274;2022-12-16T09:49:14;10.00;;;8.70;;
363;SDS011;173;48.718;9.274;2022-12-16T09:52:05;10.00;;;8.00;;
363;SDS011;173;48.718;9.274;2022-12-16T09:55:02;10.53;;;7.80;;
363;SDS011;173;48.718;9.274;2022-12-16T09:57:55;14.43;;;8.23;;
363;SDS011;173;48.718;9.274;2022-12-16T10:00:45;12.90;;;9.40;;
363;SDS011;173;48.718;9.274;2022-12-16T10:03:37;10.70;;;7.40;;
363;SDS011;173;48.718;9.274;2022-12-16T10:09:46;13.30;;;8.87;;
363;SDS011;173;48.718;9.274;2022-12-16T10:19:27;12.50;;;7.80;;
363;SDS011;173;48.718;9.274;2022-12-16T10:22:29;10.10;;;7.43;;
363;SDS011;173;48.718;9.274;2022-12-16T10:25:48;12.47;;;7.60;;
363;SDS011;173;48.718;9.274;2022-12-16T10:28:46;12.97;;;7.67;;
363;SDS011;173;48.718;9.274;2022-12-16T10:31:39;11.90;;;7.00;;
363;SDS011;173;48.718;9.274;2022-12-16T10:37:22;11.63;;;8.30;;
363;SDS011;173;48.718;9.274;2022-12-16T10:42:25;13.30;;;8.17;;
363;SDS011;173;48.718;9.274;2022-12-16T10:48:23;11.23;;;8.83;;
363;SDS011;173;48.718;9.274;2022-12-16T10:51:16;10.47;;;8.70;;
363;SDS011;173;48.718;9.274;2022-12-16T11:02:24;13.13;;;9.47;;
363;SDS011;173;48.718;9.274;2022-12-16T11:08:23;10.55;;;6.30;;
363;SDS011;173;48.718;9.274;2022-12-16T11:11:27;10.90;;;7.35;;
363;SDS011;173;48.718;9.274;2022-12-16T11:14:16;13.03;;;7.03;;
363;SDS011;173;48.718;9.274;2022-12-16T11:20:14;10.20;;;7.15;;
363;SDS011;173;48.718;9.274;2022-12-16T11:23:14;9.60;;;6.50;;
363;SDS011;173;48.718;9.274;2022-12-16T11:26:18;7.05;;;5.65;;
363;SDS011;173;48.718;9.274;2022-12-16T11:29:15;9.37;;;6.67;;
363;SDS011;173;48.718;9.274;2022-12-16T11:35:20;9.05;;;6.50;;
363;SDS011;173;48.718;9.274;2022-12-16T11:38:09;11.30;;;7.40;;
363;SDS011;173;48.718;9.274;2022-12-16T11:41:27;8.53;;;6.40;;
363;SDS011;173;48.718;9.274;2022-12-16T11:44:38;8.77;;;6.40;;
363;SDS011;173;48.718;9.274;2022-12-16T11:47:34;9.70;;;7.30;;
363;SDS011;173;48.718;9.274;2022-12-16T11:50:46;8.80;;;6.70;;
363;SDS011;173;48.718;9.274;2022-12-16T11:53:44;12.80;;;7.50;;
363;SDS011;173;48.718;9.274;2022-12-16T11:56:44;12.13;;;6.80;;
363;SDS011;173;48.718;9.274;2022-12-16T11:59:51;9.70;;;7.05;;
363;SDS011;173;48.718;9.274;2022-12-16T12:02:50;10.60;;;7.30;;
363;SDS011;173;48.718;9.274;2022-12-16T12:09:14;9.93;;;7.03;;
363;SDS011;173;48.718;9.274;2022-12-16T12:12:11;10.95;;;6.70;;
363;SDS011;173;48.718;9.274;2022-12-16T12:18:15;9.77;;;6.57;;
363;SDS011;173;48.718;9.274;2022-12-16T12:24:19;11.73;;;8.03;;
363;SDS011;173;48.718;9.274;2022-12-16T12:27:25;10.70;;;6.90;;
363;SDS011;173;48.718;9.274;2022-12-16T12:40:28;9.90;;;6.20;;
363;SDS011;173;48.718;9.274;2022-12-16T12:43:47;8.77;;;6.13;;
363;SDS011;173;48.718;9.274;2022-12-16T12:46:48;10.10;;;7.00;;
363;SDS011;173;48.718;9.274;2022-12-16T12:56:05;9.00;;;7.00;;
363;SDS011;173;48.718;9.274;2022-12-16T12:59:25;9.80;;;7.43;;
363;SDS011;173;48.718;9.274;2022-12-16T13:02:29;10.20;;;6.80;;
363;SDS011;173;48.718;9.274;2022-12-16T13:05:32;9.50;;;6.70;;
363;SDS011;173;48.718;9.274;2022-12-16T13:08:41;11.00;;;8.10;;
363;SDS011;173;48.718;9.274;2022-12-16T13:20:59;11.10;;;6.37;;
363;SDS011;173;48.718;9.274;2022-12-16T13:26:34;8.67;;;5.60;;
363;SDS011;173;48.718;9.274;2022-12-16T13:32:21;9.80;;;6.13;;
363;SDS011;173;48.718;9.274;2022-12-16T13:38:05;7.07;;;5.97;;
363;SDS011;173;48.718;9.274;2022-12-16T13:50:36;6.90;;;5.23;;
363;SDS011;173;48.718;9.274;2022-12-16T13:53:41;9.37;;;6.40;;
363;SDS011;173;48.718;9.274;2022-12-16T13:56:38;7.43;;;4.67;;
363;SDS011;173;48.718;9.274;2022-12-16T13:59:31;8.50;;;5.45;;
363;SDS011;173;48.718;9.274;2022-12-16T14:02:25;10.13;;;6.40;;
363;SDS011;173;48.718;9.274;2022-12-16T14:05:21;8.60;;;5.70;;
363;SDS011;173;48.718;9.274;2022-12-16T14:08:14;10.30;;;7.00;;
363;SDS011;173;48.718;9.274;2022-12-16T14:11:17;10.00;;;6.73;;
363;SDS011;173;48.718;9.274;2022-12-16T14:14:16;6.85;;;6.00;;
363;SDS011;173;48.718;9.274;2022-12-16T14:17:00;11.43;;;6.40;;
363;SDS011;173;48.718;9.274;2022-12-16T14:28:43;10.50;;;7.60;;
363;SDS011;173;48.718;9.274;2022-12-16T14:34:29;9.85;;;6.90;;
363;SDS011;173;48.718;9.274;2022-12-16T14:37:36;13.10;;;7.60;;
363;SDS011;173;48.718;9.274;2022-12-16T14:40:30;9.75;;;6.15;;
363;SDS011;173;48.718;9.274;2022-12-16T14:43:21;8.80;;;7.07;;
363;SDS011;173;48.718;9.274;2022-12-16T14:49:23;10.77;;;6.57;;
363;SDS011;173;48.718;9.274;2022-12-16T14:52:17;8.47;;;5.50;;
363;SDS011;173;48.718;9.274;2022-12-16T14:55:10;9.40;;;5.63;;
363;SDS011;173;48.718;9.274;2022-12-16T14:58:09;11.90;;;6.57;;
363;SDS011;173;48.718;9.274;2022-12-16T15:01:14;8.10;;;6.10;;
363;SDS011;173;48.718;9.274;2022-12-16T15:04:16;9.13;;;6.40;;
363;SDS011;173;48.718;9.274;2022-12-16T15:07:09;10.53;;;5.90;;
363;SDS011;173;48.718;9.274;2022-12-16T15:10:00;11.83;;;5.90;;
363;SDS011;173;48.718;9.274;2022-12-16T15:12:51;8.87;;;5.77;;
363;SDS011;173;48.718;9.274;2022-12-16T15:21:46;9.30;;;6.20;;
363;SDS011;173;48.718;9.274;2022-12-16T15:24:36;9.27;;;5.80;;
363;SDS011;173;48.718;9.274;2022-12-16T15:27:32;8.75;;;6.75;;
363;SDS011;173;48.718;9.274;2022-12-16T15:33:28;8.60;;;5.90;;
363;SDS011;173;48.718;9.274;2022-12-16T15:36:22;11.30;;;7.45;;
363;SDS011;173;48.718;9.274;2022-12-16T15:39:28;8.03;;;6.03;;
363;SDS011;173;48.718;9.274;2022-12-16T15:42:28;8.45;;;5.85;;
363;SDS011;173;48.718;9.274;2022-12-16T15:48:30;9.77;;;6.40;;
363;SDS011;173;48.718;9.274;2022-12-16T15:51:21;7.37;;;6.27;;
363;SDS011;173;48.718;9.274;2022-12-16T15:54:19;10.60;;;6.00;;
363;SDS011;173;48.718;9.274;2022-12-16T15:57:24;8.50;;;6.20;;
363;SDS011;173;48.718;9.274;2022-12-16T16:03:21;9.05;;;6.90;;
363;SDS011;173;48.718;9.274;2022-12-16T16:06:14;9.40;;;6.30;;
363;SDS011;173;48.718;9.274;2022-12-16T16:09:11;10.50;;;6.35;;
363;SDS011;173;48.718;9.274;2022-12-16T16:12:15;8.70;;;7.05;;
363;SDS011;173;48.718;9.274;2022-12-16T16:14:53;13.63;;;10.20;;
363;SDS011;173;48.718;9.274;2022-12-16T16:17:43;9.00;;;5.50;;
363;SDS011;173;48.718;9.274;2022-12-16T16:20:39;7.55;;;5.35;;
363;SDS011;173;48.718;9.274;2022-12-16T16:29:08;11.80;;;7.27;;
363;SDS011;173;48.718;9.274;2022-12-16T16:32:02;10.03;;;7.33;;
363;SDS011;173;48.718;9.274;2022-12-16T16:34:53;7.60;;;6.80;;
363;SDS011;173;48.718;9.274;2022-12-16T16:37:43;8.20;;;7.30;;
363;SDS011;173;48.718;9.274;2022-12-16T16:43:24;11.77;;;6.67;;
363;SDS011;173;48.718;9.274;2022-12-16T16:49:21;13.70;;;8.20;;
363;SDS011;173;48.718;9.274;2022-12-16T16:52:18;9.10;;;5.20;;
363;SDS011;173;48.718;9.274;2022-12-16T16:55:13;9.40;;;5.73;;
363;SDS011;173;48.718;9.274;2022-12-16T16:58:19;10.80;;;6.90;;
363;SDS011;173;48.718;9.274;2022-12-16T17:01:11;8.87;;;5.60;;
363;SDS011;173;48.718;9.274;2022-12-16T17:04:02;11.13;;;7.10;;
363;SDS011;173;48.718;9.274;2022-12-16T17:06:52;12.10;;;6.77;;
363;SDS011;173;48.718;9.274;2022-12-16T17:09:43;12.20;;;6.80;;
363;SDS011;173;48.718;9.274;2022-12-16T17:12:32;12.50;;;7.67;;
363;SDS011;173;48.718;9.274;2022-12-16T17:15:24;7.60;;;5.70;;
363;SDS011;173;48.718;9.274;2022-12-16T17:18:20;9.90;;;6.63;;
363;SDS011;173;48.718;9.274;2022-12-16T17:21:10;12.60;;;6.80;;
363;SDS011;173;48.718;9.274;2022-12-16T17:24:00;10.80;;;7.30;;
363;SDS011;173;48.718;9.274;2022-12-16T17:26:51;8.20;;;6.60;;
363;SDS011;173;48.718;9.274;2022-12-16T17:32:28;9.95;;;6.85;;
363;SDS011;173;48.718;9.274;2022-12-16T17:35:20;9.83;;;6.67;;
363;SDS011;173;48.718;9.274;2022-12-16T17:38:10;8.40;;;6.37;;
363;SDS011;173;48.718;9.274;2022-12-16T17:41:02;11.43;;;7.33;;
363;SDS011;173;48.718;9.274;2022-12-16T17:43:53;10.65;;;8.20;;
363;SDS011;173;48.718;9.274;2022-12-16T17:46:43;11.67;;;7.53;;
363;SDS011;173;48.718;9.274;2022-12-16T17:49:33;14.67;;;6.17;;
363;SDS011;173;48.718;9.274;2022-12-16T17:52:23;9.40;;;7.35;;
363;SDS011;173;48.718;9.274;2022-12-16T17:55:00;15.37;;;8.50;;
363;SDS011;173;48.718;9.274;2022-12-16T17:57:49;13.20;;;7.37;;
363;SDS011;173;48.718;9.274;2022-12-16T18:03:28;9.70;;;8.10;;
363;SDS011;173;48.718;9.274;2022-12-16T18:06:17;13.20;;;7.20;;
363;SDS011;173;48.718;9.274;2022-12-16T18:09:07;10.20;;;8.10;;
363;SDS011;173;48.718;9.274;2022-12-16T18:11:57;11.70;;;8.00;;
363;SDS011;173;48.718;9.274;2022-12-16T18:14:46;10.95;;;7.85;;
363;SDS011;173;48.718;9.274;2022-12-16T18:17:37;13.90;;;7.87;;
363;SDS011;173;48.718;9.274;2022-12-16T18:20:26;9.47;;;7.83;;
363;SDS011;173;48.718;9.274;2022-12-16T18:23:17;9.57;;;7.30;;
363;SDS011;173;48.718;9.274;2022-12-16T18:26:07;11.70;;;8.70;;
363;SDS011;173;48.718;9.274;2022-12-16T18:28:57;16.70;;;8.45;;
363;SDS011;173;48.718;9.274;2022-12-16T18:31:47;11.15;;;7.60;;
363;SDS011;173;48.718;9.274;2022-12-16T18:34:37;12.80;;;7.65;;
363;SDS011;173;48.718;9.274;2022-12-16T18:37:11;10.30;;;8.60;;
363;SDS011;173;48.718;9.274;2022-12-16T18:40:01;12.20;;;8.37;;
363;SDS011;173;48.718;9.274;2022-12-16T18:42:52;12.15;;;7.35;;
363;SDS011;173;48.718;9.274;2022-12-16T18:45:42;15.00;;;8.20;;
363;SDS011;173;48.718;9.274;2022-12-16T18:48:37;13.60;;;9.17;;
363;SDS011;173;48.718;9.274;2022-12-16T18:51:27;10.40;;;7.23;;
363;SDS011;173;48.718;9.274;2022-12-16T18:54:16;14.45;;;9.05;;
363;SDS011;173;48.718;9.274;2022-12-16T18:59:55;12.60;;;8.90;;
363;SDS011;173;48.718;9.274;2022-12-16T19:02:45;14.00;;;7.80;;
363;SDS011;173;48.718;9.274;2022-12-16T19:05:35;11.60;;;9.00;;
363;SDS011;173;48.718;9.274;2022-12-16T19:11:12;12.10;;;8.90;;
363;SDS011;173;48.718;9.274;2022-12-16T19:14:02;10.40;;;8.30;;
363;SDS011;173;48.718;9.274;2022-12-16T19:16:51;12.20;;;8.00;;
363;SDS011;173;48.718;9.274;2022-12-16T19:19:41;10.53;;;7.93;;
363;SDS011;173;48.718;9.274;2022-12-16T19:25:19;12.00;;;8.70;;
363;SDS011;173;48.718;9.274;2022-12-16T19:28:13;13.10;;;8.60;;
363;SDS011;173;48.718;9.274;2022-12-16T19:31:03;14.33;;;9.37;;
363;SDS011;173;48.718;9.274;2022-12-16T19:33:53;17.83;;;9.23;;
363;SDS011;173;48.718;9.274;2022-12-16T19:36:43;11.90;;;10.23;;
363;SDS011;173;48.718;9.274;2022-12-16T19:39:33;14.55;;;8.75;;
363;SDS011;173;48.718;9.274;2022-12-16T19:42:23;13.00;;;9.87;;
363;SDS011;173;48.718;9.274;2022-12-16T19:45:12;10.97;;;8.70;;
363;SDS011;173;48.718;9.274;2022-12-16T19:48:03;13.47;;;8.77;;
363;SDS011;173;48.718;9.274;2022-12-16T19:50:55;15.80;;;10.10;;
363;SDS011;173;48.718;9.274;2022-12-16T19:53:44;12.07;;;9.57;;
363;SDS011;173;48.718;9.274;2022-12-16T19:56:34;14.00;;;9.93;;
363;SDS011;173;48.718;9.274;2022-12-16T19:59:24;14.90;;;10.10;;
363;SDS011;173;48.718;9.274;2022-12-16T20:02:14;13.57;;;10.80;;
363;SDS011;173;48.718;9.274;2022-12-16T20:05:04;13.57;;;8.93;;
363;SDS011;173;48.718;9.274;2022-12-16T20:07:54;18.10;;;12.05;;
363;SDS011;173;48.718;9.274;2022-12-16T20:10:44;15.10;;;10.17;;
363;SDS011;173;48.718;9.274;2022-12-16T20:13:33;12.03;;;9.87;;
363;SDS011;173;48.718;9.274;2022-12-16T20:16:23;15.45;;;9.75;;
363;SDS011;173;48.718;9.274;2022-12-16T20:19:13;17.50;;;8.95;;
363;SDS011;173;48.718;9.274;2022-12-16T20:22:03;15.93;;;12.20;;
363;SDS011;173;48.718;9.274;2022-12-16T20:24:53;14.47;;;9.70;;
363;SDS011;173;48.718;9.274;2022-12-16T20:27:43;15.40;;;9.80;;
363;SDS011;173;48.718;9.274;2022-12-16T20:30:33;11.40;;;9.70;;
363;SDS011;173;48.718;9.274;2022-12-16T20:33:23;18.20;;;10.87;;
363;SDS011;173;48.718;9.274;2022-12-16T20:36:13;14.10;;;9.50;;
363;SDS011;173;48.718;9.274;2022-12-16T20:39:03;15.03;;;10.87;;
363;SDS011;173;48.718;9.274;2022-12-16T20:41:53;14.60;;;10.50;;
363;SDS011;173;48.718;9.274;2022-12-16T20:44:43;12.30;;;9.90;;
363;SDS011;173;48.718;9.274;2022-12-16T20:47:32;17.50;;;9.30;;
363;SDS011;173;48.718;9.274;2022-12-16T20:52:33;13.60;;;10.40;;
363;SDS011;173;48.718;9.274;2022-12-16T20:55:23;12.50;;;9.55;;
363;SDS011;173;48.718;9.274;2022-12-16T20:58:21;13.50;;;9.75;;
363;SDS011;173;48.718;9.274;2022-12-16T21:01:08;15.70;;;10.35;;
363;SDS011;173;48.718;9.274;2022-12-16T21:04:00;12.70;;;10.50;;
363;SDS011;173;48.718;9.274;2022-12-16T21:06:50;19.10;;;11.00;;
363;SDS011;173;48.718;9.274;2022-12-16T21:09:39;17.93;;;12.03;;
363;SDS011;173;48.718;9.274;2022-12-16T21:12:29;12.35;;;10.00;;
363;SDS011;173;48.718;9.274;2022-12-16T21:18:07;14.00;;;9.80;;
363;SDS011;173;48.718;9.274;2022-12-16T21:20:58;17.30;;;10.10;;
363;SDS011;173;48.718;9.274;2022-12-16T21:23:48;15.03;;;9.77;;
363;SDS011;173;48.718;9.274;2022-12-16T21:26:37;13.47;;;9.50;;
363;SDS011;173;48.718;9.274;2022-12-16T21:32:16;17.85;;;11.10;;